createdAt,value
2023-09-28T00:00:33.527Z,19.61
2023-09-28T00:03:00.181Z,19.62
2023-09-28T00:05:29.659Z,19.59
2023-09-28T00:08:01.151Z,19.69
2023-09-28T00:10:30.852Z,19.61
2023-09-28T00:12:57.396Z,19.57
2023-09-28T00:15:27.875Z,19.53
2023-09-28T00:17:56.017Z,19.53
2023-09-28T00:20:23.850Z,19.41
2023-09-28T00:22:55.436Z,19.35
2023-09-28T00:25:24.369Z,19.25
2023-09-28T00:27:54.274Z,19.17
2023-09-28T00:30:25.821Z,19.00
2023-09-28T00:32:57.493Z,19.20
2023-09-28T00:35:25.139Z,19.16
2023-09-28T00:37:51.857Z,19.02
2023-09-28T00:40:34.094Z,18.91
2023-09-28T00:43:01.998Z,19.04
2023-09-28T00:45:29.393Z,19.06
2023-09-28T00:48:00.209Z,18.98
2023-09-28T00:50:29.104Z,18.92
2023-09-28T00:52:59.986Z,19.01
2023-09-28T00:55:30.818Z,19.07
2023-09-28T00:58:01.800Z,19.05
2023-09-28T01:00:35.211Z,19.06
2023-09-28T01:03:04.212Z,19.11
2023-09-28T01:05:35.787Z,19.15
2023-09-28T01:08:16.744Z,19.20
2023-09-28T01:10:43.759Z,19.19
2023-09-28T01:13:16.818Z,19.19
2023-09-28T01:15:44.817Z,19.19
2023-09-28T01:18:12.858Z,19.23
2023-09-28T01:20:39.850Z,19.22
2023-09-28T01:23:06.603Z,19.25
2023-09-28T01:25:34.099Z,19.26
2023-09-28T01:28:01.575Z,19.30
2023-09-28T01:30:28.634Z,19.27
2023-09-28T01:32:55.408Z,19.34
2023-09-28T01:35:22.110Z,19.32
2023-09-28T01:37:57.976Z,19.30
2023-09-28T01:40:24.470Z,19.28
2023-09-28T01:42:51.007Z,19.27
2023-09-28T01:45:17.532Z,19.25
2023-09-28T01:47:44.158Z,19.24
2023-09-28T01:50:11.223Z,19.21
2023-09-28T01:52:37.713Z,19.16
2023-09-28T01:55:04.410Z,19.14
2023-09-28T01:57:30.971Z,18.88
2023-09-28T01:59:57.420Z,18.71
2023-09-28T02:02:23.897Z,18.72
2023-09-28T02:04:50.390Z,18.61
2023-09-28T02:07:16.828Z,18.53
2023-09-28T02:09:43.526Z,18.63
2023-09-28T02:12:10.248Z,18.50
2023-09-28T02:14:37.397Z,18.35
2023-09-28T02:17:03.959Z,18.23
2023-09-28T02:19:30.536Z,18.18
2023-09-28T02:21:56.970Z,18.09
2023-09-28T02:24:23.475Z,17.89
2023-09-28T02:26:53.122Z,17.91
2023-09-28T02:29:19.568Z,18.10
2023-09-28T02:31:46.068Z,18.18
2023-09-28T02:34:12.658Z,18.35
2023-09-28T02:36:39.082Z,18.41
2023-09-28T02:39:08.744Z,18.45
2023-09-28T02:41:36.295Z,18.47
2023-09-28T02:44:03.223Z,18.39
2023-09-28T02:46:29.876Z,18.16
2023-09-28T02:48:56.509Z,17.90
2023-09-28T02:51:25.792Z,17.94
2023-09-28T02:53:52.400Z,17.97
2023-09-28T02:56:19.018Z,17.99
2023-09-28T02:58:48.691Z,17.82
2023-09-28T03:01:15.173Z,17.50
2023-09-28T03:03:41.742Z,17.39
2023-09-28T03:06:08.218Z,17.16
2023-09-28T03:08:34.722Z,17.16
2023-09-28T03:11:01.273Z,17.10
2023-09-28T03:13:27.882Z,16.99
2023-09-28T03:15:55.053Z,16.92
2023-09-28T03:18:22.922Z,16.89
2023-09-28T03:20:49.732Z,16.82
2023-09-28T03:23:16.263Z,16.81
2023-09-28T03:25:44.124Z,16.76
2023-09-28T03:28:10.754Z,16.78
2023-09-28T03:30:37.242Z,16.82
2023-09-28T03:33:04.157Z,16.85
2023-09-28T03:35:30.836Z,16.95
2023-09-28T03:37:59.827Z,17.05
2023-09-28T03:40:35.636Z,17.00
2023-09-28T03:43:02.535Z,17.02
2023-09-28T03:45:29.072Z,17.09
2023-09-28T03:47:58.274Z,16.95
2023-09-28T03:50:24.885Z,16.74
2023-09-28T03:52:52.328Z,16.64
2023-09-28T03:55:24.587Z,16.61
2023-09-28T03:57:52.061Z,16.57
2023-09-28T04:00:20.905Z,16.59
2023-09-28T04:02:52.861Z,16.46
2023-09-28T04:05:21.481Z,16.35
2023-09-28T04:07:48.157Z,16.25
2023-09-28T04:10:15.810Z,16.09
2023-09-28T04:12:42.669Z,16.10
2023-09-28T04:15:12.211Z,16.10
2023-09-28T04:17:41.307Z,16.03
2023-09-28T04:20:11.426Z,15.99
2023-09-28T04:22:38.053Z,15.87
2023-09-28T04:25:05.152Z,15.92
2023-09-28T04:27:31.757Z,15.89
2023-09-28T04:29:58.344Z,15.87
2023-09-28T04:32:24.803Z,15.76
2023-09-28T04:34:51.418Z,15.74
2023-09-28T04:37:17.986Z,15.67
2023-09-28T04:39:45.418Z,15.63
2023-09-28T04:42:15.954Z,15.59
2023-09-28T04:44:44.866Z,15.54
2023-09-28T04:47:15.068Z,15.48
2023-09-28T04:49:44.355Z,15.37
2023-09-28T04:52:14.497Z,15.42
2023-09-28T04:54:41.235Z,15.40
2023-09-28T04:57:08.008Z,15.35
2023-09-28T04:59:40.514Z,15.29
2023-09-28T05:02:08.221Z,15.24
2023-09-28T05:04:36.105Z,15.28
2023-09-28T05:07:03.041Z,15.25
2023-09-28T05:09:29.624Z,15.33
2023-09-28T05:12:00.398Z,15.41
2023-09-28T05:14:27.806Z,15.37
2023-09-28T05:16:58.323Z,15.40
2023-09-28T05:19:28.400Z,15.31
2023-09-28T05:21:54.949Z,15.32
2023-09-28T05:24:21.466Z,15.23
2023-09-28T05:26:48.020Z,15.22
2023-09-28T05:29:14.483Z,15.19
2023-09-28T05:31:41.797Z,15.19
2023-09-28T05:34:08.769Z,15.09
2023-09-28T05:36:35.959Z,15.14
2023-09-28T05:39:04.224Z,15.07
2023-09-28T05:41:31.866Z,15.07
2023-09-28T05:43:58.350Z,15.03
2023-09-28T05:46:25.009Z,15.06
2023-09-28T05:48:51.566Z,15.10
2023-09-28T05:51:18.710Z,15.00
2023-09-28T05:53:46.374Z,15.07
2023-09-28T05:56:17.635Z,15.11
2023-09-28T05:58:44.123Z,15.11
2023-09-28T06:01:14.653Z,15.00
2023-09-28T06:03:41.468Z,15.10
2023-09-28T06:06:18.428Z,15.16
2023-09-28T06:08:47.679Z,15.16
2023-09-28T06:11:15.324Z,15.24
2023-09-28T06:13:56.384Z,15.21
2023-09-28T06:16:29.193Z,15.27
2023-09-28T06:18:55.928Z,15.32
2023-09-28T06:21:22.985Z,15.27
2023-09-28T06:23:49.537Z,15.40
2023-09-28T06:26:30.170Z,15.31
2023-09-28T06:29:02.224Z,15.41
2023-09-28T06:31:29.102Z,15.48
2023-09-28T06:33:55.831Z,15.55
2023-09-28T06:36:39.979Z,15.62
2023-09-28T06:39:09.843Z,15.39
2023-09-28T06:41:36.485Z,15.56
2023-09-28T06:44:02.996Z,15.68
2023-09-28T06:46:29.966Z,15.66
2023-09-28T06:48:56.919Z,15.74
2023-09-28T06:51:27.480Z,15.88
2023-09-28T06:53:54.203Z,15.94
2023-09-28T06:56:21.601Z,16.05
2023-09-28T06:58:48.252Z,16.15
2023-09-28T07:01:14.820Z,16.27
2023-09-28T07:03:41.570Z,16.43
2023-09-28T07:06:08.332Z,16.49
2023-09-28T07:08:34.845Z,16.57
2023-09-28T07:11:02.290Z,16.64
2023-09-28T07:13:28.754Z,16.75
2023-09-28T07:15:58.298Z,16.70
2023-09-28T07:18:28.634Z,16.73
2023-09-28T07:20:56.680Z,16.86
2023-09-28T07:23:23.127Z,17.00
2023-09-28T07:25:52.159Z,17.19
2023-09-28T07:28:19.301Z,17.39
2023-09-28T07:30:45.892Z,17.73
2023-09-28T07:33:14.696Z,17.87
2023-09-28T07:35:41.565Z,18.15
2023-09-28T07:38:08.272Z,18.40
2023-09-28T07:40:46.996Z,18.44
2023-09-28T07:43:14.870Z,18.51
2023-09-28T07:45:42.013Z,18.84
2023-09-28T07:48:09.113Z,19.02
2023-09-28T07:50:36.252Z,19.29
2023-09-28T07:53:02.779Z,19.58
2023-09-28T07:55:29.271Z,19.61
2023-09-28T07:58:02.292Z,19.66
2023-09-28T08:00:38.635Z,19.72
2023-09-28T08:03:06.153Z,19.92
2023-09-28T08:05:35.812Z,19.98
2023-09-28T08:08:14.665Z,20.30
2023-09-28T08:10:43.264Z,20.44
2023-09-28T08:13:13.530Z,20.43
2023-09-28T08:15:42.104Z,20.65
2023-09-28T08:18:09.396Z,20.97
2023-09-28T08:20:36.594Z,21.00
2023-09-28T08:23:05.757Z,21.22
2023-09-28T08:25:32.852Z,21.04
2023-09-28T08:28:00.016Z,20.90
2023-09-28T08:30:26.456Z,20.76
2023-09-28T08:32:54.751Z,20.77
2023-09-28T08:35:21.952Z,20.69
2023-09-28T08:37:48.750Z,20.61
2023-09-28T08:40:15.462Z,20.69
2023-09-28T08:42:47.438Z,20.64
2023-09-28T08:45:16.955Z,20.45
2023-09-28T08:47:51.299Z,20.45
2023-09-28T08:50:25.152Z,20.55
2023-09-28T08:52:52.458Z,20.56
2023-09-28T08:55:20.329Z,20.66
2023-09-28T08:57:50.708Z,20.79
2023-09-28T09:00:23.827Z,21.02
2023-09-28T09:02:52.897Z,21.56
2023-09-28T09:05:20.188Z,22.05
2023-09-28T09:07:48.860Z,22.07
2023-09-28T09:10:21.253Z,21.68
2023-09-28T09:12:48.577Z,21.69
2023-09-28T09:15:15.039Z,21.65
2023-09-28T09:17:41.798Z,21.55
2023-09-28T09:20:10.335Z,21.32
2023-09-28T09:22:49.065Z,21.27
2023-09-28T09:25:24.057Z,21.36
2023-09-28T09:27:51.345Z,21.32
2023-09-28T09:30:18.382Z,21.12
2023-09-28T09:32:46.039Z,21.10
2023-09-28T09:35:12.673Z,20.92
2023-09-28T09:37:43.217Z,20.86
2023-09-28T09:40:12.272Z,20.90
2023-09-28T09:42:38.808Z,21.02
2023-09-28T09:45:06.481Z,20.96
2023-09-28T09:47:32.968Z,20.97
2023-09-28T09:50:01.763Z,20.99
2023-09-28T09:52:29.703Z,21.05
2023-09-28T09:54:59.357Z,21.14
2023-09-28T09:57:30.644Z,21.60
2023-09-28T10:00:00.388Z,21.64
2023-09-28T10:02:28.045Z,21.44
2023-09-28T10:04:55.887Z,21.10
2023-09-28T10:07:46.627Z,21.16
2023-09-28T10:10:16.000Z,20.99
2023-09-28T10:12:43.069Z,20.86
2023-09-28T10:15:11.170Z,20.93
2023-09-28T10:17:38.685Z,20.78
2023-09-28T10:20:08.495Z,20.84
2023-09-28T10:22:35.434Z,20.94
2023-09-28T10:25:03.005Z,20.99
2023-09-28T10:27:32.309Z,20.85
2023-09-28T10:30:21.511Z,20.82
2023-09-28T10:32:51.676Z,20.84
2023-09-28T10:35:21.584Z,20.88
2023-09-28T10:38:20.407Z,21.12
2023-09-28T10:41:07.176Z,21.37
2023-09-28T10:43:44.182Z,21.35
2023-09-28T10:46:11.109Z,21.42
2023-09-28T10:48:45.537Z,21.29
2023-09-28T10:51:17.131Z,21.26
2023-09-28T10:53:44.634Z,21.18
2023-09-28T10:56:12.067Z,21.17
2023-09-28T10:58:40.468Z,21.37
2023-09-28T11:01:07.844Z,22.17
2023-09-28T11:03:36.202Z,21.82
2023-09-28T11:06:04.555Z,21.76
2023-09-28T11:08:35.134Z,21.67
2023-09-28T11:11:04.941Z,21.94
2023-09-28T11:13:34.067Z,21.81
2023-09-28T11:16:01.154Z,21.87
2023-09-28T11:18:28.561Z,21.84
2023-09-28T11:20:59.566Z,21.74
2023-09-28T11:23:26.410Z,21.44
2023-09-28T11:25:54.740Z,21.57
2023-09-28T11:28:22.941Z,21.52
2023-09-28T11:31:09.703Z,21.52
2023-09-28T11:33:40.321Z,21.53
2023-09-28T11:36:08.345Z,21.44
2023-09-28T11:38:35.132Z,21.32
2023-09-28T11:41:05.518Z,21.36
2023-09-28T11:43:48.396Z,21.56
2023-09-28T11:46:29.054Z,21.53
2023-09-28T11:49:05.810Z,21.53
2023-09-28T11:51:36.525Z,21.63
2023-09-28T11:54:07.774Z,21.65
2023-09-28T11:56:35.011Z,21.64
2023-09-28T11:59:01.966Z,21.75
2023-09-28T12:01:28.500Z,21.85
2023-09-28T12:03:56.166Z,21.92
2023-09-28T12:06:22.834Z,21.94
2023-09-28T12:08:51.026Z,22.45
2023-09-28T12:11:17.876Z,22.82
2023-09-28T12:13:44.562Z,23.38
2023-09-28T12:16:12.063Z,23.18
2023-09-28T12:18:38.792Z,23.33
2023-09-28T12:21:05.413Z,23.56
2023-09-28T12:23:31.847Z,24.08
2023-09-28T12:25:58.436Z,24.69
2023-09-28T12:28:24.831Z,25.04
2023-09-28T12:30:52.089Z,24.17
2023-09-28T12:33:18.846Z,23.58
2023-09-28T12:35:46.290Z,23.28
2023-09-28T12:38:13.217Z,23.69
2023-09-28T12:40:39.955Z,23.98
2023-09-28T12:43:06.801Z,24.51
2023-09-28T12:45:34.724Z,24.30
2023-09-28T12:48:05.595Z,24.19
2023-09-28T12:50:33.149Z,24.24
2023-09-28T12:53:00.810Z,23.83
2023-09-28T12:55:27.325Z,23.42
2023-09-28T12:57:55.284Z,22.95
2023-09-28T13:00:26.778Z,23.26
2023-09-28T13:02:53.693Z,23.94
2023-09-28T13:05:20.851Z,23.87
2023-09-28T13:07:47.728Z,23.45
2023-09-28T13:10:17.270Z,23.00
2023-09-28T13:12:44.967Z,22.78
2023-09-28T13:15:14.496Z,22.67
2023-09-28T13:17:41.825Z,22.69
2023-09-28T13:20:12.369Z,22.47
2023-09-28T13:22:38.919Z,22.81
2023-09-28T13:25:07.387Z,22.75
2023-09-28T13:27:35.694Z,22.68
2023-09-28T13:30:09.568Z,22.50
2023-09-28T13:32:36.100Z,22.55
2023-09-28T13:35:04.563Z,22.40
2023-09-28T13:37:31.895Z,22.17
2023-09-28T13:39:58.521Z,22.08
2023-09-28T13:42:24.985Z,22.11
2023-09-28T13:44:51.481Z,21.99
2023-09-28T13:47:17.967Z,22.09
2023-09-28T13:49:44.377Z,22.21
2023-09-28T13:52:11.648Z,22.20
2023-09-28T13:54:38.613Z,22.13
2023-09-28T13:57:10.235Z,22.08
2023-09-28T13:59:38.794Z,22.15
2023-09-28T14:02:05.261Z,22.22
2023-09-28T14:04:32.398Z,22.19
2023-09-28T14:06:58.821Z,22.27
2023-09-28T14:09:32.486Z,22.24
2023-09-28T14:11:59.002Z,22.33
2023-09-28T14:14:25.706Z,22.70
2023-09-28T14:16:52.887Z,22.67
2023-09-28T14:19:19.586Z,22.58
2023-09-28T14:21:46.069Z,22.53
2023-09-28T14:24:13.457Z,22.43
2023-09-28T14:26:43.523Z,22.39
2023-09-28T14:29:12.930Z,22.24
2023-09-28T14:31:40.042Z,22.20
2023-09-28T14:34:07.216Z,22.16
2023-09-28T14:36:33.811Z,22.33
2023-09-28T14:39:00.425Z,22.56
2023-09-28T14:41:27.060Z,22.38
2023-09-28T14:43:54.282Z,22.31
2023-09-28T14:46:21.388Z,22.44
2023-09-28T14:48:48.686Z,22.64
2023-09-28T14:51:15.565Z,22.48
2023-09-28T14:53:42.069Z,22.46
2023-09-28T14:56:08.817Z,22.70
2023-09-28T14:58:35.450Z,22.58
2023-09-28T15:01:01.940Z,22.62
2023-09-28T15:03:29.462Z,22.64
2023-09-28T15:05:56.037Z,22.62
2023-09-28T15:08:23.332Z,22.43
2023-09-28T15:10:50.763Z,22.36
2023-09-28T15:13:17.517Z,22.25
2023-09-28T15:15:43.909Z,22.07
2023-09-28T15:18:10.611Z,22.02
2023-09-28T15:20:37.407Z,21.83
2023-09-28T15:23:04.564Z,21.78
2023-09-28T15:25:31.126Z,21.69
2023-09-28T15:27:57.700Z,21.69
2023-09-28T15:30:24.237Z,21.58
2023-09-28T15:32:50.930Z,21.45
2023-09-28T15:35:17.818Z,21.31
2023-09-28T15:37:45.011Z,21.22
2023-09-28T15:40:13.954Z,21.04
2023-09-28T15:42:40.778Z,21.02
2023-09-28T15:45:09.232Z,21.02
2023-09-28T15:47:37.871Z,21.02
2023-09-28T15:50:05.100Z,21.06
2023-09-28T15:52:32.693Z,20.89
2023-09-28T15:54:59.959Z,20.85
2023-09-28T15:57:27.126Z,20.82
2023-09-28T15:59:53.913Z,20.76
2023-09-28T16:02:20.657Z,20.69
2023-09-28T16:04:47.099Z,20.67
2023-09-28T16:07:13.591Z,20.61
2023-09-28T16:09:39.959Z,20.71
2023-09-28T16:12:06.431Z,20.64
2023-09-28T16:14:35.984Z,20.56
2023-09-28T16:17:02.451Z,20.52
2023-09-28T16:19:29.017Z,20.49
2023-09-28T16:21:56.291Z,20.45
2023-09-28T16:24:22.803Z,20.46
2023-09-28T16:26:49.326Z,20.42
2023-09-28T16:29:15.906Z,20.35
2023-09-28T16:31:42.472Z,20.33
2023-09-28T16:34:09.480Z,20.30
2023-09-28T16:36:35.893Z,20.27
2023-09-28T16:39:02.599Z,20.21
2023-09-28T16:41:31.749Z,20.15
2023-09-28T16:43:58.211Z,20.08
2023-09-28T16:46:25.357Z,19.92
2023-09-28T16:48:51.840Z,19.83
2023-09-28T16:51:18.271Z,19.81
2023-09-28T16:53:44.979Z,19.75
2023-09-28T16:56:11.491Z,19.71
2023-09-28T16:58:40.561Z,19.61
2023-09-28T17:01:07.262Z,19.54
2023-09-28T17:03:34.904Z,19.48
2023-09-28T17:06:01.558Z,19.41
2023-09-28T17:08:28.058Z,19.40
2023-09-28T17:10:55.758Z,19.35
2023-09-28T17:13:25.006Z,19.25
2023-09-28T17:15:51.726Z,19.11
2023-09-28T17:18:21.656Z,19.13
2023-09-28T17:20:48.526Z,19.14
2023-09-28T17:23:15.314Z,19.14
2023-09-28T17:25:42.641Z,19.08
2023-09-28T17:28:09.332Z,19.09
2023-09-28T17:30:35.915Z,19.04
2023-09-28T17:33:02.591Z,18.99
2023-09-28T17:35:31.039Z,18.89
2023-09-28T17:37:57.556Z,18.79
2023-09-28T17:40:24.621Z,18.82
2023-09-28T17:42:51.716Z,18.75
2023-09-28T17:45:18.287Z,18.70
2023-09-28T17:47:46.836Z,18.64
2023-09-28T17:50:13.625Z,18.51
2023-09-28T17:52:40.102Z,18.39
2023-09-28T17:55:08.166Z,18.29
2023-09-28T17:57:35.585Z,18.31
2023-09-28T18:00:02.334Z,18.36
2023-09-28T18:02:28.993Z,18.39
2023-09-28T18:04:55.569Z,18.38
2023-09-28T18:07:22.028Z,18.28
2023-09-28T18:09:48.461Z,18.22
2023-09-28T18:12:15.638Z,18.22
2023-09-28T18:14:42.147Z,18.19
2023-09-28T18:17:08.590Z,18.08
2023-09-28T18:19:35.053Z,18.07
2023-09-28T18:22:01.751Z,18.05
2023-09-28T18:24:28.235Z,17.90
2023-09-28T18:26:54.759Z,17.80
2023-09-28T18:29:21.285Z,17.66
2023-09-28T18:31:47.746Z,17.65
2023-09-28T18:34:15.265Z,17.75
2023-09-28T18:36:42.000Z,17.63
2023-09-28T18:39:15.943Z,17.49
2023-09-28T18:41:48.646Z,17.56
2023-09-28T18:44:16.660Z,17.63
2023-09-28T18:46:43.294Z,17.47
2023-09-28T18:55:14.255Z,17.39
2023-09-28T18:57:41.196Z,17.44
2023-09-28T19:00:21.600Z,17.34
2023-09-28T19:02:51.159Z,17.37
2023-09-28T19:05:18.370Z,17.36
2023-09-28T19:07:46.380Z,17.24
2023-09-28T19:10:12.870Z,17.22
2023-09-28T19:12:39.579Z,17.17
2023-09-28T19:15:09.522Z,17.27
2023-09-28T19:17:37.029Z,17.31
2023-09-28T19:20:06.025Z,17.19
2023-09-28T19:22:35.426Z,17.09
2023-09-28T19:25:02.272Z,16.98
2023-09-28T19:27:38.675Z,17.05
2023-09-28T19:30:08.114Z,17.08
2023-09-28T19:32:36.968Z,17.08
2023-09-28T19:35:05.149Z,17.03
2023-09-28T19:37:31.625Z,16.89
2023-09-28T19:39:58.312Z,16.73
2023-09-28T19:42:24.916Z,16.81
2023-09-28T19:44:51.660Z,16.89
2023-09-28T19:47:18.113Z,16.90
2023-09-28T19:49:44.807Z,16.78
2023-09-28T19:52:11.923Z,16.59
2023-09-28T19:54:38.417Z,16.70
2023-09-28T19:57:05.268Z,16.76
2023-09-28T19:59:32.017Z,16.60
2023-09-28T20:01:59.107Z,16.68
2023-09-28T20:04:26.405Z,16.57
2023-09-28T20:06:53.232Z,16.60
2023-09-28T20:09:20.894Z,16.62
2023-09-28T20:11:47.555Z,16.57
2023-09-28T20:14:14.330Z,16.43
2023-09-28T20:16:40.883Z,16.38
2023-09-28T20:19:08.098Z,16.42
2023-09-28T20:21:34.605Z,16.49
2023-09-28T20:24:01.143Z,16.43
2023-09-28T20:26:27.705Z,16.35
2023-09-28T20:28:54.272Z,16.42
2023-09-28T20:31:20.695Z,16.42
2023-09-28T20:33:47.592Z,16.22
2023-09-28T20:36:18.678Z,16.36
2023-09-28T20:38:45.141Z,16.43
2023-09-28T20:41:12.096Z,16.44
2023-09-28T20:43:39.016Z,16.44
2023-09-28T20:46:05.536Z,16.28
2023-09-28T20:48:32.220Z,16.31
2023-09-28T20:50:59.623Z,16.35
2023-09-28T20:53:26.079Z,16.33
2023-09-28T20:55:52.745Z,16.27
2023-09-28T20:58:19.337Z,16.31
2023-09-28T21:00:45.870Z,16.27
2023-09-28T21:03:12.513Z,16.30
2023-09-28T21:05:39.189Z,16.31
2023-09-28T21:08:05.934Z,16.27
2023-09-28T21:10:32.407Z,16.32
2023-09-28T21:12:59.229Z,16.35
2023-09-28T21:15:25.807Z,16.26
2023-09-28T21:17:52.567Z,16.18
2023-09-28T21:20:19.689Z,16.25
2023-09-28T21:22:46.547Z,16.19
2023-09-28T21:25:13.111Z,16.20
2023-09-28T21:27:39.835Z,16.31
2023-09-28T21:30:09.684Z,16.29
2023-09-28T21:32:36.892Z,16.29
2023-09-28T21:35:03.674Z,16.26
2023-09-28T21:37:30.199Z,16.28
2023-09-28T21:39:56.699Z,16.26
2023-09-28T21:42:23.189Z,16.28
2023-09-28T21:44:49.894Z,16.26
2023-09-28T21:47:16.927Z,16.19
2023-09-28T21:49:43.458Z,16.24
2023-09-28T21:52:10.027Z,16.23
2023-09-28T21:54:38.760Z,16.21
2023-09-28T21:57:05.608Z,16.22
2023-09-28T21:59:33.045Z,16.22
2023-09-28T22:01:59.775Z,16.22
2023-09-28T22:04:26.282Z,16.20
2023-09-28T22:06:52.876Z,16.24
2023-09-28T22:09:19.399Z,16.27
2023-09-28T22:11:45.950Z,16.28
2023-09-28T22:14:12.501Z,16.33
2023-09-28T22:16:38.982Z,16.23
2023-09-28T22:19:05.658Z,16.33
2023-09-28T22:21:32.477Z,16.39
2023-09-28T22:23:59.093Z,16.41
2023-09-28T22:26:25.772Z,16.46
2023-09-28T22:28:52.727Z,16.53
2023-09-28T22:31:19.381Z,16.64
2023-09-28T22:33:46.128Z,16.67
2023-09-28T22:36:12.643Z,16.69
2023-09-28T22:38:39.863Z,16.72
2023-09-28T22:41:06.404Z,16.67
2023-09-28T22:43:33.062Z,16.76
2023-09-28T22:45:59.642Z,16.78
2023-09-28T22:48:26.447Z,16.80
2023-09-28T22:50:53.209Z,16.81
2023-09-28T22:53:19.803Z,16.84
2023-09-28T22:55:46.713Z,16.84
2023-09-28T22:58:13.180Z,16.89
2023-09-28T23:00:39.822Z,16.91
2023-09-28T23:03:07.280Z,16.93
2023-09-28T23:05:34.152Z,16.86
2023-09-28T23:08:02.148Z,16.94
2023-09-28T23:10:29.887Z,16.97
2023-09-28T23:12:57.127Z,16.97
2023-09-28T23:15:24.072Z,16.95
2023-09-28T23:17:50.746Z,17.00
2023-09-28T23:20:17.491Z,17.01
2023-09-28T23:22:45.152Z,17.04
2023-09-28T23:25:18.757Z,17.05
2023-09-28T23:27:52.314Z,17.05
2023-09-28T23:30:20.615Z,17.11
2023-09-28T23:32:52.102Z,17.08
2023-09-28T23:35:21.393Z,17.09
2023-09-28T23:37:49.213Z,17.15
2023-09-28T23:40:22.183Z,17.17
2023-09-28T23:42:49.888Z,17.14
2023-09-28T23:45:17.243Z,17.15
2023-09-28T23:47:45.210Z,17.19
2023-09-28T23:50:13.641Z,17.19
2023-09-28T23:52:41.258Z,17.17
2023-09-28T23:55:11.727Z,17.12
2023-09-28T23:57:38.682Z,17.15
